createdAt,value
2022-11-20T00:00:54.536Z,86.39
2022-11-20T00:03:22.545Z,87.02
2022-11-20T00:05:50.216Z,86.03
2022-11-20T00:08:18.834Z,85.88
2022-11-20T00:10:46.495Z,84.69
2022-11-20T00:13:14.218Z,83.52
2022-11-20T00:15:41.920Z,82.78
2022-11-20T00:18:10.778Z,83.31
2022-11-20T00:20:38.447Z,82.85
2022-11-20T00:23:06.884Z,83.09
2022-11-20T00:25:35.928Z,82.43
2022-11-20T00:28:03.631Z,82.87
2022-11-20T00:30:31.305Z,84.05
2022-11-20T00:32:59.057Z,83.45
2022-11-20T00:35:28.137Z,84.23
2022-11-20T00:37:55.812Z,84.88
2022-11-20T00:40:23.513Z,86.53
2022-11-20T00:42:51.144Z,87.45
2022-11-20T00:45:18.861Z,86.60
2022-11-20T00:47:46.507Z,84.79
2022-11-20T00:50:14.193Z,84.83
2022-11-20T00:52:43.493Z,83.57
2022-11-20T00:55:11.141Z,83.34
2022-11-20T00:57:38.814Z,83.44
2022-11-20T01:00:08.075Z,83.45
2022-11-20T01:02:35.804Z,84.53
2022-11-20T01:05:03.537Z,83.56
2022-11-20T01:07:31.226Z,83.65
2022-11-20T01:10:00.335Z,84.40
2022-11-20T01:12:28.067Z,85.43
2022-11-20T01:14:55.725Z,86.36
2022-11-20T01:17:23.464Z,89.20
2022-11-20T01:19:51.676Z,90.11
2022-11-20T01:22:19.343Z,88.85
2022-11-20T01:24:46.994Z,86.19
2022-11-20T01:27:16.073Z,87.93
2022-11-20T01:29:43.786Z,91.72
2022-11-20T01:32:11.475Z,89.52
2022-11-20T01:34:39.209Z,86.72
2022-11-20T01:37:06.909Z,86.61
2022-11-20T01:39:34.583Z,85.17
2022-11-20T01:42:19.908Z,84.21
2022-11-20T01:44:54.892Z,84.16
2022-11-20T01:47:26.400Z,84.13
2022-11-20T01:49:58.153Z,83.97
2022-11-20T01:52:30.767Z,83.50
2022-11-20T01:55:01.301Z,86.43
2022-11-20T01:57:30.553Z,88.75
2022-11-20T02:00:07.258Z,86.59
2022-11-20T02:02:35.156Z,84.56
2022-11-20T02:05:05.670Z,83.55
2022-11-20T02:07:33.724Z,82.76
2022-11-20T02:10:01.441Z,82.76
2022-11-20T02:12:47.112Z,86.64
2022-11-20T02:15:16.355Z,89.32
2022-11-20T02:17:44.011Z,91.15
2022-11-20T02:20:12.549Z,89.00
2022-11-20T02:22:46.475Z,86.05
2022-11-20T02:25:16.385Z,88.85
2022-11-20T02:27:44.055Z,86.57
2022-11-20T02:30:12.973Z,89.16
2022-11-20T02:32:40.854Z,88.10
2022-11-20T02:35:10.036Z,87.94
2022-11-20T02:37:39.587Z,90.22
2022-11-20T02:40:08.711Z,88.62
2022-11-20T02:42:38.218Z,86.38
2022-11-20T02:45:06.701Z,86.24
2022-11-20T02:47:34.507Z,85.05
2022-11-20T02:50:02.321Z,83.73
2022-11-20T02:52:30.078Z,83.58
2022-11-20T02:54:57.768Z,84.46
2022-11-20T02:57:25.498Z,83.65
2022-11-20T02:59:54.557Z,84.91
2022-11-20T03:02:22.532Z,84.17
2022-11-20T03:04:50.217Z,83.25
2022-11-20T03:07:17.925Z,82.30
2022-11-20T03:09:45.674Z,82.18
2022-11-20T03:12:13.399Z,82.58
2022-11-20T03:14:41.104Z,82.93
2022-11-20T03:17:10.327Z,83.22
2022-11-20T03:19:38.036Z,82.84
2022-11-20T03:22:05.718Z,84.39
2022-11-20T03:24:33.413Z,82.88
2022-11-20T03:27:01.176Z,84.89
2022-11-20T03:29:29.011Z,85.26
2022-11-20T03:31:56.736Z,83.76
2022-11-20T03:34:25.952Z,83.82
2022-11-20T03:36:53.587Z,85.61
2022-11-20T03:39:21.639Z,84.15
2022-11-20T03:41:49.544Z,82.95
2022-11-20T03:44:17.218Z,84.27
2022-11-20T03:46:44.918Z,86.25
2022-11-20T03:49:12.598Z,84.85
2022-11-20T03:51:41.719Z,83.97
2022-11-20T03:54:10.780Z,83.83
2022-11-20T03:56:40.517Z,85.96
2022-11-20T03:59:08.504Z,85.91
2022-11-20T04:01:37.864Z,84.34
2022-11-20T04:04:06.029Z,83.11
2022-11-20T04:06:37.749Z,83.58
2022-11-20T04:09:07.577Z,83.21
2022-11-20T04:11:36.657Z,84.64
2022-11-20T04:14:05.767Z,83.47
2022-11-20T04:16:36.404Z,85.01
2022-11-20T04:19:05.764Z,86.39
2022-11-20T04:21:33.486Z,84.14
2022-11-20T04:24:01.229Z,84.30
2022-11-20T04:26:30.975Z,82.91
2022-11-20T04:28:59.220Z,84.50
2022-11-20T04:31:28.580Z,86.45
2022-11-20T04:33:56.811Z,85.21
2022-11-20T04:36:26.356Z,84.03
2022-11-20T04:38:56.988Z,83.39
2022-11-20T04:41:26.485Z,82.81
2022-11-20T04:44:00.061Z,83.17
2022-11-20T04:46:29.375Z,82.90
2022-11-20T04:48:57.235Z,83.03
2022-11-20T04:51:25.483Z,90.22
2022-11-20T04:53:53.319Z,94.65
2022-11-20T04:56:21.045Z,90.59
2022-11-20T04:58:48.789Z,87.22
2022-11-20T05:01:20.252Z,86.86
2022-11-20T05:03:48.095Z,86.52
2022-11-20T05:06:17.725Z,86.37
2022-11-20T05:08:45.448Z,86.88
2022-11-20T05:11:14.912Z,86.23
2022-11-20T05:13:42.856Z,86.71
2022-11-20T05:16:12.731Z,90.09
2022-11-20T05:18:42.500Z,93.15
2022-11-20T05:21:11.006Z,90.53
2022-11-20T05:23:39.058Z,91.01
2022-11-20T05:26:08.056Z,88.71
2022-11-20T05:28:35.976Z,88.09
2022-11-20T05:31:07.963Z,89.57
2022-11-20T05:33:36.065Z,92.38
2022-11-20T05:36:05.480Z,88.55
2022-11-20T05:38:33.292Z,89.35
2022-11-20T05:41:05.940Z,90.25
2022-11-20T05:43:35.738Z,90.22
2022-11-20T05:46:03.701Z,88.43
2022-11-20T05:48:32.426Z,87.78
2022-11-20T05:51:00.225Z,87.51
2022-11-20T05:53:29.419Z,89.09
2022-11-20T05:56:01.176Z,90.02
2022-11-20T05:58:29.125Z,89.55
2022-11-20T06:00:57.003Z,89.75
2022-11-20T06:03:24.759Z,87.92
2022-11-20T06:05:52.472Z,86.49
2022-11-20T06:08:20.175Z,86.25
2022-11-20T06:10:49.207Z,87.08
2022-11-20T06:13:16.898Z,86.82
2022-11-20T06:15:44.568Z,85.51
2022-11-20T06:18:12.199Z,86.40
2022-11-20T06:20:42.230Z,89.92
2022-11-20T06:23:10.089Z,89.62
2022-11-20T06:25:39.605Z,87.14
2022-11-20T06:28:08.767Z,85.47
2022-11-20T06:30:36.669Z,85.29
2022-11-20T06:33:04.483Z,84.92
2022-11-20T06:35:32.265Z,85.79
2022-11-20T06:37:59.948Z,84.00
2022-11-20T06:40:27.625Z,85.00
2022-11-20T06:42:56.010Z,83.43
2022-11-20T06:45:25.035Z,84.24
2022-11-20T06:47:52.651Z,86.17
2022-11-20T06:50:20.352Z,91.63
2022-11-20T06:52:48.076Z,95.09
2022-11-20T06:55:15.812Z,95.77
2022-11-20T06:57:43.436Z,94.43
2022-11-20T07:00:12.487Z,91.02
2022-11-20T07:02:41.561Z,89.50
2022-11-20T07:05:09.587Z,88.19
2022-11-20T07:07:37.307Z,86.40
2022-11-20T07:10:05.796Z,86.20
2022-11-20T07:12:33.495Z,87.98
2022-11-20T07:15:01.160Z,90.00
2022-11-20T07:17:28.799Z,91.93
2022-11-20T07:19:57.861Z,91.75
2022-11-20T07:22:25.585Z,90.01
2022-11-20T07:24:53.250Z,88.67
2022-11-20T07:27:20.881Z,86.33
2022-11-20T07:29:48.596Z,85.36
2022-11-20T07:32:16.289Z,84.48
2022-11-20T07:34:44.000Z,84.73
2022-11-20T07:37:13.044Z,84.49
2022-11-20T07:39:40.763Z,85.48
2022-11-20T07:42:08.659Z,83.37
2022-11-20T07:44:36.603Z,85.46
2022-11-20T07:47:04.420Z,83.98
2022-11-20T07:49:32.418Z,85.23
2022-11-20T07:52:04.345Z,86.44
2022-11-20T07:54:34.269Z,85.89
2022-11-20T07:57:01.924Z,85.89
2022-11-20T07:59:29.623Z,87.29
2022-11-20T08:01:57.309Z,83.94
2022-11-20T08:04:25.006Z,84.55
2022-11-20T08:06:54.196Z,81.56
2022-11-20T08:09:21.795Z,82.68
2022-11-20T08:12:08.017Z,84.06
2022-11-20T08:14:35.491Z,85.41
2022-11-20T08:17:02.972Z,85.14
2022-11-20T08:19:30.503Z,84.29
2022-11-20T08:21:58.012Z,82.39
2022-11-20T08:24:25.801Z,81.25
2022-11-20T08:26:54.697Z,82.07
2022-11-20T08:29:22.575Z,82.93
2022-11-20T08:31:50.345Z,82.90
2022-11-20T08:34:19.090Z,82.39
2022-11-20T08:36:47.018Z,83.91
2022-11-20T08:39:14.585Z,84.75
2022-11-20T08:41:42.168Z,83.62
2022-11-20T08:44:11.039Z,82.90
2022-11-20T08:46:39.157Z,82.49
2022-11-20T08:49:07.044Z,84.23
2022-11-20T08:51:34.531Z,83.34
2022-11-20T08:54:02.148Z,81.98
2022-11-20T08:56:29.656Z,78.10
2022-11-20T09:01:46.032Z,76.24
2022-11-20T09:04:15.281Z,73.61
2022-11-20T09:06:43.978Z,76.46
2022-11-20T09:09:11.616Z,77.44
2022-11-20T09:11:39.056Z,75.98
2022-11-20T09:14:06.487Z,74.74
2022-11-20T09:16:34.025Z,72.38
2022-11-20T09:19:40.785Z,73.84
2022-11-20T09:21:50.403Z,73.34
2022-11-20T09:24:17.900Z,72.55
2022-11-20T09:26:45.432Z,72.15
2022-11-20T09:29:12.960Z,72.84
2022-11-20T09:31:40.459Z,72.80
2022-11-20T09:34:09.344Z,70.81
2022-11-20T09:36:36.866Z,71.92
2022-11-20T09:39:04.513Z,72.37
2022-11-20T09:41:38.732Z,72.86
2022-11-20T09:44:07.407Z,71.14
2022-11-20T09:46:36.541Z,70.62
2022-11-20T09:49:13.271Z,70.28
2022-11-20T09:51:41.884Z,71.05
2022-11-20T09:54:12.891Z,68.99
2022-11-20T09:56:41.198Z,69.94
2022-11-20T09:59:08.853Z,68.40
2022-11-20T10:01:37.312Z,68.87
2022-11-20T10:04:05.664Z,68.69
2022-11-20T10:06:35.233Z,68.14
2022-11-20T10:09:05.551Z,68.31
2022-11-20T10:11:35.258Z,67.66
2022-11-20T10:14:04.882Z,68.05
2022-11-20T10:16:39.494Z,66.43
2022-11-20T10:19:12.327Z,65.83
2022-11-20T10:21:43.342Z,65.84
2022-11-20T10:24:24.960Z,64.18
2022-11-20T10:26:54.068Z,64.87
2022-11-20T10:29:21.854Z,62.52
2022-11-20T10:31:50.296Z,61.43
2022-11-20T10:34:23.153Z,59.80
2022-11-20T10:36:53.268Z,59.91
2022-11-20T10:39:22.180Z,60.06
2022-11-20T10:41:51.331Z,59.10
2022-11-20T10:44:39.815Z,58.79
2022-11-20T10:47:07.915Z,55.52
2022-11-20T10:49:35.442Z,54.96
2022-11-20T10:52:07.036Z,53.59
2022-11-20T10:54:35.855Z,53.52
2022-11-20T10:57:04.680Z,55.24
2022-11-20T10:59:38.114Z,54.80
2022-11-20T11:02:16.403Z,53.80
2022-11-20T11:04:45.315Z,54.14
2022-11-20T11:07:15.406Z,55.17
2022-11-20T11:09:43.929Z,54.15
2022-11-20T11:12:11.451Z,57.17
2022-11-20T11:14:46.137Z,57.76
2022-11-20T11:17:23.833Z,55.53
2022-11-20T11:20:07.895Z,53.65
2022-11-20T11:22:37.105Z,53.29
2022-11-20T11:25:04.788Z,52.77
2022-11-20T11:27:32.322Z,53.85
2022-11-20T11:30:14.387Z,52.27
2022-11-20T11:32:42.074Z,53.32
2022-11-20T11:35:20.883Z,52.28
2022-11-20T11:37:49.924Z,53.61
2022-11-20T11:40:25.378Z,53.43
2022-11-20T11:42:54.864Z,53.01
2022-11-20T11:45:21.421Z,52.90
2022-11-20T11:47:49.283Z,53.55
2022-11-20T11:50:18.255Z,54.36
2022-11-20T11:52:46.481Z,54.96
2022-11-20T11:55:16.708Z,55.00
2022-11-20T11:57:46.424Z,55.09
2022-11-20T12:00:14.844Z,53.74
2022-11-20T12:02:48.789Z,53.58
2022-11-20T12:05:18.812Z,53.73
2022-11-20T12:07:48.039Z,53.44
2022-11-20T12:10:24.502Z,52.17
2022-11-20T12:12:54.211Z,51.96
2022-11-20T12:15:31.901Z,51.32
2022-11-20T12:17:59.611Z,51.36
2022-11-20T12:20:28.360Z,52.91
2022-11-20T12:22:57.774Z,53.59
2022-11-20T12:25:27.145Z,53.42
2022-11-20T12:28:09.528Z,52.51
2022-11-20T12:30:38.253Z,53.36
2022-11-20T12:33:19.129Z,53.11
2022-11-20T12:35:49.945Z,53.92
2022-11-20T12:38:32.318Z,55.23
2022-11-20T12:41:02.343Z,55.74
2022-11-20T12:43:47.292Z,56.34
2022-11-20T12:46:18.103Z,57.71
2022-11-20T12:49:04.776Z,55.73
2022-11-20T12:51:54.092Z,55.05
2022-11-20T12:54:34.346Z,54.79
2022-11-20T12:57:05.390Z,55.74
2022-11-20T12:59:36.185Z,55.02
2022-11-20T13:02:05.315Z,54.71
2022-11-20T13:04:36.343Z,54.91
2022-11-20T13:07:05.086Z,55.80
2022-11-20T13:09:32.628Z,56.24
2022-11-20T13:12:02.616Z,55.83
2022-11-20T13:14:33.848Z,56.81
2022-11-20T13:17:06.051Z,56.54
2022-11-20T13:19:33.962Z,56.35
2022-11-20T13:22:01.475Z,55.99
2022-11-20T13:24:31.097Z,56.57
2022-11-20T13:27:02.593Z,57.53
2022-11-20T13:29:30.741Z,55.69
2022-11-20T13:32:07.958Z,58.65
2022-11-20T13:34:36.352Z,59.56
2022-11-20T13:37:04.860Z,59.72
2022-11-20T13:39:32.876Z,62.99
2022-11-20T13:42:01.272Z,65.38
2022-11-20T13:44:31.157Z,64.04
2022-11-20T13:46:58.678Z,63.60
2022-11-20T13:49:29.350Z,66.27
2022-11-20T13:51:59.779Z,64.59
2022-11-20T13:54:36.304Z,64.97
2022-11-20T13:57:06.593Z,64.57
2022-11-20T13:59:38.306Z,65.36
2022-11-20T14:02:07.761Z,65.21
2022-11-20T14:04:38.647Z,65.30
2022-11-20T14:07:07.635Z,64.61
2022-11-20T14:09:36.062Z,64.60
2022-11-20T14:12:04.060Z,65.64
2022-11-20T14:14:31.909Z,65.88
2022-11-20T14:17:07.246Z,66.40
2022-11-20T14:19:38.118Z,65.99
2022-11-20T14:22:09.811Z,65.69
2022-11-20T14:24:37.340Z,66.28
2022-11-20T14:27:04.890Z,64.85
2022-11-20T14:29:35.300Z,65.25
2022-11-20T14:32:02.793Z,64.71
2022-11-20T14:34:32.436Z,65.17
2022-11-20T14:37:01.941Z,65.80
2022-11-20T14:39:31.062Z,65.39
2022-11-20T14:41:58.534Z,66.95
2022-11-20T14:44:27.801Z,66.40
2022-11-20T14:46:55.332Z,67.71
2022-11-20T14:49:22.818Z,69.43
2022-11-20T14:51:59.987Z,69.36
2022-11-20T14:54:30.074Z,69.27
2022-11-20T14:56:57.961Z,69.55
2022-11-20T14:59:25.856Z,69.84
2022-11-20T15:01:57.091Z,69.90
2022-11-20T15:04:24.801Z,71.15
2022-11-20T15:06:52.943Z,71.43
2022-11-20T15:09:20.469Z,73.45
2022-11-20T15:11:55.048Z,73.12
2022-11-20T15:14:22.967Z,72.36
2022-11-20T15:16:50.676Z,71.41
2022-11-20T15:19:19.444Z,71.66
2022-11-20T15:21:46.877Z,72.36
2022-11-20T15:24:14.350Z,72.08
2022-11-20T15:26:42.019Z,70.38
2022-11-20T15:29:11.735Z,71.63
2022-11-20T15:31:42.305Z,73.47
2022-11-20T15:34:11.058Z,73.83
2022-11-20T15:36:38.573Z,72.32
2022-11-20T15:39:08.096Z,71.47
2022-11-20T15:41:35.748Z,72.33
2022-11-20T15:44:03.319Z,73.26
2022-11-20T15:46:33.799Z,72.65
2022-11-20T15:49:01.668Z,72.66
2022-11-20T15:51:29.746Z,74.29
2022-11-20T15:53:57.536Z,76.22
2022-11-20T15:56:25.236Z,77.09
2022-11-20T15:58:52.737Z,77.70
2022-11-20T16:01:20.755Z,77.84
2022-11-20T16:03:49.652Z,74.96
2022-11-20T16:06:17.226Z,73.97
2022-11-20T16:08:44.670Z,72.73
2022-11-20T16:11:12.720Z,73.40
2022-11-20T16:13:57.570Z,73.51
2022-11-20T16:16:26.195Z,72.82
2022-11-20T16:18:55.061Z,73.60
2022-11-20T16:21:28.182Z,76.17
2022-11-20T16:23:55.748Z,73.93
2022-11-20T16:26:23.251Z,75.47
2022-11-20T16:28:50.760Z,74.95
2022-11-20T16:31:18.864Z,76.36
2022-11-20T16:33:50.844Z,75.70
2022-11-20T16:36:19.980Z,75.26
2022-11-20T16:38:47.506Z,76.26
2022-11-20T16:41:15.316Z,77.83
2022-11-20T16:43:47.261Z,77.02
2022-11-20T16:46:14.941Z,76.97
2022-11-20T16:48:42.400Z,77.69
2022-11-20T16:51:10.331Z,77.80
2022-11-20T16:53:39.281Z,79.16
2022-11-20T16:56:10.279Z,80.21
2022-11-20T16:58:37.719Z,81.59
2022-11-20T17:01:10.664Z,80.92
2022-11-20T17:03:39.016Z,82.03
2022-11-20T17:06:12.993Z,82.07
2022-11-20T17:08:41.891Z,82.16
2022-11-20T17:11:09.635Z,82.24
2022-11-20T17:13:39.774Z,83.57
2022-11-20T17:16:08.227Z,86.81
2022-11-20T17:18:35.816Z,86.23
2022-11-20T17:21:05.243Z,87.95
2022-11-20T17:23:32.744Z,88.38
2022-11-20T17:26:05.742Z,87.61
2022-11-20T17:28:33.487Z,87.17
2022-11-20T17:31:01.750Z,88.42
2022-11-20T17:33:29.306Z,89.85
2022-11-20T17:35:57.032Z,87.10
2022-11-20T17:38:24.721Z,87.35
2022-11-20T17:40:52.184Z,87.36
2022-11-20T17:43:21.031Z,89.08
2022-11-20T17:45:48.525Z,89.39
2022-11-20T17:48:16.050Z,92.88
2022-11-20T17:50:43.572Z,94.22
2022-11-20T17:53:11.042Z,92.08
2022-11-20T17:55:56.191Z,92.37
2022-11-20T17:58:25.046Z,92.03
2022-11-20T18:00:52.516Z,93.03
2022-11-20T18:03:19.955Z,95.22
2022-11-20T18:05:47.423Z,92.95
2022-11-20T18:08:14.951Z,94.51
2022-11-20T18:10:42.492Z,93.46
2022-11-20T18:13:09.955Z,94.46
2022-11-20T18:15:38.751Z,93.98
2022-11-20T18:18:06.375Z,95.02
2022-11-20T18:20:38.358Z,95.04
2022-11-20T18:23:07.436Z,95.31
2022-11-20T18:25:35.001Z,95.95
2022-11-20T18:28:02.476Z,100.00
2022-11-20T18:30:29.962Z,100.00
2022-11-20T18:32:58.819Z,100.00
2022-11-20T18:35:27.689Z,100.00
2022-11-20T18:37:55.142Z,100.00
2022-11-20T18:40:22.740Z,100.00
2022-11-20T18:43:07.759Z,100.00
2022-11-20T18:45:35.203Z,100.00
2022-11-20T18:48:04.189Z,100.00
2022-11-20T18:50:31.681Z,100.00
2022-11-20T18:52:59.187Z,100.00
2022-11-20T18:55:26.669Z,100.00
2022-11-20T18:57:55.115Z,100.00
2022-11-20T19:00:22.685Z,100.00
2022-11-20T19:02:50.122Z,100.00
2022-11-20T19:05:18.995Z,100.00
2022-11-20T19:07:46.536Z,100.00
2022-11-20T19:10:14.236Z,100.00
2022-11-20T19:12:41.704Z,100.00
2022-11-20T19:15:09.415Z,100.00
2022-11-20T19:17:37.725Z,100.00
2022-11-20T19:20:05.564Z,100.00
2022-11-20T19:22:34.403Z,100.00
2022-11-20T19:25:01.916Z,100.00
2022-11-20T19:27:29.421Z,100.00
2022-11-20T19:30:02.984Z,100.00
2022-11-20T19:32:30.926Z,100.00
2022-11-20T19:34:58.398Z,100.00
2022-11-20T19:37:26.068Z,100.00
2022-11-20T19:39:56.654Z,100.00
2022-11-20T19:42:24.148Z,100.00
2022-11-20T19:44:51.597Z,100.00
2022-11-20T19:47:19.094Z,100.00
2022-11-20T19:49:46.629Z,100.00
2022-11-20T19:52:14.105Z,100.00
2022-11-20T19:54:41.591Z,100.00
2022-11-20T19:57:10.549Z,100.00
2022-11-20T19:59:38.233Z,100.00
2022-11-20T20:02:05.793Z,100.00
2022-11-20T20:04:33.335Z,100.00
2022-11-20T20:07:03.764Z,100.00
2022-11-20T20:09:31.275Z,100.00
2022-11-20T20:11:58.805Z,100.00
2022-11-20T20:14:27.639Z,100.00
2022-11-20T20:16:55.176Z,100.00
2022-11-20T20:19:23.080Z,100.00
2022-11-20T20:21:50.987Z,100.00
2022-11-20T20:24:18.547Z,100.00
2022-11-20T20:26:46.086Z,100.00
2022-11-20T20:29:13.535Z,100.00
2022-11-20T20:31:42.350Z,100.00
2022-11-20T20:34:09.892Z,100.00
2022-11-20T20:36:37.436Z,100.00
2022-11-20T20:39:04.948Z,100.00
2022-11-20T20:41:32.469Z,100.00
2022-11-20T20:44:32.020Z,100.00
2022-11-20T20:47:01.200Z,100.00
2022-11-20T20:49:28.676Z,100.00
2022-11-20T20:51:56.217Z,100.00
2022-11-20T20:54:23.732Z,100.00
2022-11-20T20:56:51.843Z,100.00
2022-11-20T20:59:19.345Z,100.00
2022-11-20T21:01:46.873Z,100.00
2022-11-20T21:04:16.121Z,100.00
2022-11-20T21:06:43.561Z,100.00
2022-11-20T21:09:11.127Z,100.00
2022-11-20T21:11:39.695Z,100.00
2022-11-20T21:14:07.197Z,100.00
2022-11-20T21:16:41.185Z,100.00
2022-11-20T21:19:08.791Z,100.00
2022-11-20T21:21:55.206Z,100.00
2022-11-20T21:24:23.090Z,100.00
2022-11-20T21:26:52.186Z,100.00
2022-11-20T21:29:19.823Z,100.00
2022-11-20T21:31:47.474Z,100.00
2022-11-20T21:34:15.353Z,100.00
2022-11-20T21:36:44.915Z,100.00
2022-11-20T21:39:12.599Z,100.00
2022-11-20T21:41:40.334Z,100.00
2022-11-20T21:46:55.795Z,100.00
2022-11-20T21:49:23.526Z,100.00
2022-11-20T21:51:53.668Z,100.00
2022-11-20T21:54:21.404Z,100.00
2022-11-20T21:56:49.041Z,100.00
2022-11-20T21:59:16.540Z,100.00
2022-11-20T22:01:44.073Z,100.00
2022-11-20T22:04:13.362Z,100.00
2022-11-20T22:06:40.806Z,100.00
2022-11-20T22:09:10.837Z,100.00
2022-11-20T22:11:38.409Z,100.00
2022-11-20T22:14:24.851Z,100.00
2022-11-20T22:16:53.136Z,100.00
2022-11-20T22:19:21.417Z,100.00
2022-11-20T22:21:49.270Z,100.00
2022-11-20T22:24:19.290Z,100.00
2022-11-20T22:26:47.629Z,100.00
2022-11-20T22:29:15.339Z,100.00
2022-11-20T22:31:42.851Z,100.00
2022-11-20T22:34:11.213Z,100.00
2022-11-20T22:36:38.751Z,100.00
2022-11-20T22:39:06.290Z,100.00
2022-11-20T22:41:35.155Z,100.00
2022-11-20T22:44:03.071Z,100.00
2022-11-20T22:46:31.948Z,100.00
2022-11-20T22:48:59.956Z,100.00
2022-11-20T22:51:27.878Z,100.00
2022-11-20T22:53:55.407Z,100.00
2022-11-20T22:56:23.043Z,100.00
2022-11-20T22:58:52.365Z,100.00
2022-11-20T23:01:20.565Z,100.00
2022-11-20T23:03:48.697Z,100.00
2022-11-20T23:06:16.935Z,100.00
2022-11-20T23:08:44.431Z,100.00
2022-11-20T23:11:12.556Z,100.00
2022-11-20T23:13:40.253Z,100.00
2022-11-20T23:16:09.603Z,100.00
2022-11-20T23:18:37.104Z,100.00
2022-11-20T23:21:05.255Z,100.00
2022-11-20T23:23:32.873Z,100.00
2022-11-20T23:26:03.462Z,100.00
2022-11-20T23:28:32.031Z,100.00
2022-11-20T23:30:59.495Z,100.00
2022-11-20T23:33:28.434Z,100.00
2022-11-20T23:35:55.948Z,100.00
2022-11-20T23:38:23.476Z,100.00
2022-11-20T23:40:51.501Z,100.00
2022-11-20T23:43:19.512Z,100.00
2022-11-20T23:45:48.310Z,100.00
2022-11-20T23:48:15.969Z,100.00
2022-11-20T23:50:45.023Z,100.00
2022-11-20T23:53:12.783Z,100.00
2022-11-20T23:55:40.251Z,100.00
2022-11-20T23:58:07.720Z,100.00
